首页
METAR-TAF:

METAR-TAF

机场 :

索菲亞機場

索菲亞, 保加利亚

纬度: 42-39N, 经度: 023-23E, 海拔: 586米

当前天气观测

该预报发布于17分钟前的12:30 UTC
风速12节,风向东转东南
温度 4°C
湿度 75%
气压 1019 hPa
能见度10公里或以上
散云层高于1500英尺
阴天层高于1800英尺
小雨

METAR: LBSF 181230Z 12012KT 9999 -RA SCT015 OVC018 04/00 Q1019 NOSIG

时间: 14:47 (12:47 UTC)

预报

该预报发布于1小时和40分钟前的11:07 UTC
预报有效从18日的 12点(UTC)到 19日的 12点(UTC)
风速12节,风向东转东南
能見度: 8000
多云层高于1000英尺
阴天层高于2000英尺
短暂存在
从 18日的 12点(UTC)到 18日的 16点(UTC)
能見度: 5000
成为
从 18日的 16点(UTC)到 18日的 18点(UTC)
能見度: 2000
散云层高于500英尺
多云层高于800英尺
阴天层高于2000英尺
成为
从 19日的 07点(UTC)到 19日的 09点(UTC)
风速8节,风向北转西北
能見度: 8000
散云层高于3000英尺
多云层高于5000英尺

TAF: LBSF 181107Z 1812/1912 11012KT 8000 BKN010 OVC020 TEMPO 1812/1816 5000 RA BECMG 1816/1818 2000 SN SCT005 BKN008 OVC020 BECMG 1907/1909 34008KT 8000 NSW SCT030 BKN050

超过4000个机场的气象观测和天气预报(METAR&TAF报告)。

可查询的气象台以黄色和红色小点在地图上表示。

将鼠标移到小点上方,可查看气象台名称。

然后点击查看天气观测和预报。

如需切换地图:点击带黑十字的绿色按钮放大地图;点击带横线的绿色按钮缩小地图;或者点击绿色箭头查看邻近地区的地图。


METAR-TAF: